sensor_id;sensor_type;location;lat;lon;timestamp;P1;durP1;ratioP1;P2;durP2;ratioP2
75730;SDS011;64350;47.450;19.124;2023-02-28T05:23:50;12.80;;;6.50;;
75730;SDS011;64350;47.450;19.124;2023-02-28T05:26:16;15.10;;;6.93;;
75730;SDS011;64350;47.450;19.124;2023-02-28T05:28:41;18.47;;;7.13;;
75730;SDS011;64350;47.450;19.124;2023-02-28T05:31:08;14.87;;;6.37;;
75730;SDS011;64350;47.450;19.124;2023-02-28T05:33:37;15.77;;;6.77;;
75730;SDS011;64350;47.450;19.124;2023-02-28T05:36:02;14.02;;;6.85;;
75730;SDS011;64350;47.450;19.124;2023-02-28T05:38:28;13.00;;;6.30;;
75730;SDS011;64350;47.450;19.124;2023-02-28T05:40:53;13.52;;;6.18;;
75730;SDS011;64350;47.450;19.124;2023-02-28T05:43:19;16.50;;;6.07;;
75730;SDS011;64350;47.450;19.124;2023-02-28T05:45:47;14.15;;;6.87;;
75730;SDS011;64350;47.450;19.124;2023-02-28T05:48:13;15.07;;;6.20;;
75730;SDS011;64350;47.450;19.124;2023-02-28T05:50:38;13.40;;;6.53;;
75730;SDS011;64350;47.450;19.124;2023-02-28T05:53:04;12.20;;;5.90;;
75730;SDS011;64350;47.450;19.124;2023-02-28T05:55:29;14.65;;;6.78;;
75730;SDS011;64350;47.450;19.124;2023-02-28T05:57:54;12.60;;;5.73;;
75730;SDS011;64350;47.450;19.124;2023-02-28T06:00:20;14.13;;;6.70;;
75730;SDS011;64350;47.450;19.124;2023-02-28T06:02:46;13.20;;;6.73;;
75730;SDS011;64350;47.450;19.124;2023-02-28T06:05:16;14.65;;;6.07;;
75730;SDS011;64350;47.450;19.124;2023-02-28T06:07:42;16.20;;;6.90;;
75730;SDS011;64350;47.450;19.124;2023-02-28T06:10:09;14.75;;;5.95;;
75730;SDS011;64350;47.450;19.124;2023-02-28T06:12:35;13.40;;;6.60;;
75730;SDS011;64350;47.450;19.124;2023-02-28T06:15:00;11.97;;;6.13;;
75730;SDS011;64350;47.450;19.124;2023-02-28T06:17:26;14.53;;;7.90;;
75730;SDS011;64350;47.450;19.124;2023-02-28T06:19:51;15.03;;;6.13;;
75730;SDS011;64350;47.450;19.124;2023-02-28T06:22:16;13.45;;;6.70;;
75730;SDS011;64350;47.450;19.124;2023-02-28T06:24:42;14.10;;;6.63;;
75730;SDS011;64350;47.450;19.124;2023-02-28T06:27:07;14.93;;;6.67;;
75730;SDS011;64350;47.450;19.124;2023-02-28T06:29:33;16.17;;;6.13;;
75730;SDS011;64350;47.450;19.124;2023-02-28T06:31:59;13.75;;;6.68;;
75730;SDS011;64350;47.450;19.124;2023-02-28T06:34:25;15.10;;;6.63;;
75730;SDS011;64350;47.450;19.124;2023-02-28T06:36:50;14.40;;;7.10;;
75730;SDS011;64350;47.450;19.124;2023-02-28T06:39:17;13.98;;;6.45;;
75730;SDS011;64350;47.450;19.124;2023-02-28T06:41:42;15.73;;;6.70;;
75730;SDS011;64350;47.450;19.124;2023-02-28T06:44:14;18.85;;;6.68;;
75730;SDS011;64350;47.450;19.124;2023-02-28T06:46:41;13.02;;;6.65;;
75730;SDS011;64350;47.450;19.124;2023-02-28T06:49:07;15.88;;;6.78;;
75730;SDS011;64350;47.450;19.124;2023-02-28T06:51:36;15.10;;;6.53;;
75730;SDS011;64350;47.450;19.124;2023-02-28T06:54:03;16.62;;;6.78;;
75730;SDS011;64350;47.450;19.124;2023-02-28T06:56:29;13.45;;;6.62;;
75730;SDS011;64350;47.450;19.124;2023-02-28T06:58:54;14.63;;;6.53;;
75730;SDS011;64350;47.450;19.124;2023-02-28T07:01:20;15.57;;;6.50;;
75730;SDS011;64350;47.450;19.124;2023-02-28T07:03:47;14.17;;;6.53;;
75730;SDS011;64350;47.450;19.124;2023-02-28T07:06:17;11.88;;;6.55;;
75730;SDS011;64350;47.450;19.124;2023-02-28T07:08:49;14.32;;;6.45;;
75730;SDS011;64350;47.450;19.124;2023-02-28T07:11:15;15.48;;;7.07;;
75730;SDS011;64350;47.450;19.124;2023-02-28T07:13:41;16.97;;;7.47;;
75730;SDS011;64350;47.450;19.124;2023-02-28T07:16:07;13.63;;;7.13;;
75730;SDS011;64350;47.450;19.124;2023-02-28T07:18:34;12.57;;;6.15;;
75730;SDS011;64350;47.450;19.124;2023-02-28T07:21:04;13.18;;;5.87;;
75730;SDS011;64350;47.450;19.124;2023-02-28T07:23:31;17.92;;;8.75;;
75730;SDS011;64350;47.450;19.124;2023-02-28T07:25:56;11.90;;;5.80;;
75730;SDS011;64350;47.450;19.124;2023-02-28T07:28:22;14.67;;;6.77;;
75730;SDS011;64350;47.450;19.124;2023-02-28T07:30:48;12.57;;;5.72;;
75730;SDS011;64350;47.450;19.124;2023-02-28T07:33:14;12.85;;;6.15;;
75730;SDS011;64350;47.450;19.124;2023-02-28T07:35:40;17.30;;;6.20;;
75730;SDS011;64350;47.450;19.124;2023-02-28T07:38:06;12.35;;;6.72;;
75730;SDS011;64350;47.450;19.124;2023-02-28T07:40:32;13.00;;;6.47;;
75730;SDS011;64350;47.450;19.124;2023-02-28T07:42:59;15.93;;;6.33;;
75730;SDS011;64350;47.450;19.124;2023-02-28T07:45:25;11.90;;;5.50;;
75730;SDS011;64350;47.450;19.124;2023-02-28T07:47:51;13.05;;;6.00;;
75730;SDS011;64350;47.450;19.124;2023-02-28T07:50:16;14.73;;;6.77;;
75730;SDS011;64350;47.450;19.124;2023-02-28T07:52:42;13.97;;;6.03;;
75730;SDS011;64350;47.450;19.124;2023-02-28T07:55:08;11.13;;;5.57;;
75730;SDS011;64350;47.450;19.124;2023-02-28T07:57:34;11.52;;;6.03;;
75730;SDS011;64350;47.450;19.124;2023-02-28T08:00:00;11.17;;;5.40;;
75730;SDS011;64350;47.450;19.124;2023-02-28T08:02:25;12.33;;;5.67;;
75730;SDS011;64350;47.450;19.124;2023-02-28T08:04:50;15.33;;;5.90;;
75730;SDS011;64350;47.450;19.124;2023-02-28T08:07:16;15.20;;;6.25;;
75730;SDS011;64350;47.450;19.124;2023-02-28T08:09:42;12.73;;;5.93;;
75730;SDS011;64350;47.450;19.124;2023-02-28T08:12:09;14.32;;;5.90;;
75730;SDS011;64350;47.450;19.124;2023-02-28T08:14:34;12.93;;;5.97;;
75730;SDS011;64350;47.450;19.124;2023-02-28T08:17:00;14.73;;;7.17;;
75730;SDS011;64350;47.450;19.124;2023-02-28T08:19:25;10.82;;;5.50;;
75730;SDS011;64350;47.450;19.124;2023-02-28T08:21:51;10.20;;;4.97;;
75730;SDS011;64350;47.450;19.124;2023-02-28T08:24:16;10.33;;;5.60;;
75730;SDS011;64350;47.450;19.124;2023-02-28T08:26:42;11.77;;;5.33;;
75730;SDS011;64350;47.450;19.124;2023-02-28T08:29:07;8.77;;;4.60;;
75730;SDS011;64350;47.450;19.124;2023-02-28T08:31:32;12.57;;;5.50;;
75730;SDS011;64350;47.450;19.124;2023-02-28T08:34:00;12.00;;;5.20;;
75730;SDS011;64350;47.450;19.124;2023-02-28T08:36:30;10.23;;;5.18;;
75730;SDS011;64350;47.450;19.124;2023-02-28T08:38:56;10.53;;;5.73;;
75730;SDS011;64350;47.450;19.124;2023-02-28T08:41:21;14.47;;;5.80;;
75730;SDS011;64350;47.450;19.124;2023-02-28T08:43:47;12.13;;;5.87;;
75730;SDS011;64350;47.450;19.124;2023-02-28T08:46:12;11.23;;;5.13;;
75730;SDS011;64350;47.450;19.124;2023-02-28T08:48:39;11.32;;;5.85;;
75730;SDS011;64350;47.450;19.124;2023-02-28T08:51:05;11.47;;;6.00;;
75730;SDS011;64350;47.450;19.124;2023-02-28T08:53:34;12.52;;;6.37;;
75730;SDS011;64350;47.450;19.124;2023-02-28T08:56:04;13.35;;;6.12;;
75730;SDS011;64350;47.450;19.124;2023-02-28T08:58:32;12.32;;;6.28;;
75730;SDS011;64350;47.450;19.124;2023-02-28T09:00:58;13.67;;;6.17;;
75730;SDS011;64350;47.450;19.124;2023-02-28T09:03:24;13.77;;;6.65;;
75730;SDS011;64350;47.450;19.124;2023-02-28T09:05:56;11.97;;;6.03;;
75730;SDS011;64350;47.450;19.124;2023-02-28T09:08:24;11.68;;;6.22;;
75730;SDS011;64350;47.450;19.124;2023-02-28T09:10:50;11.18;;;5.72;;
75730;SDS011;64350;47.450;19.124;2023-02-28T09:13:16;12.30;;;6.17;;
75730;SDS011;64350;47.450;19.124;2023-02-28T09:15:41;11.48;;;5.57;;
75730;SDS011;64350;47.450;19.124;2023-02-28T09:18:07;11.10;;;5.60;;
75730;SDS011;64350;47.450;19.124;2023-02-28T09:20:32;10.25;;;5.60;;
75730;SDS011;64350;47.450;19.124;2023-02-28T09:22:58;10.40;;;5.53;;
75730;SDS011;64350;47.450;19.124;2023-02-28T09:25:23;11.43;;;5.93;;
75730;SDS011;64350;47.450;19.124;2023-02-28T09:27:48;10.73;;;5.77;;
75730;SDS011;64350;47.450;19.124;2023-02-28T09:30:14;12.50;;;6.03;;
75730;SDS011;64350;47.450;19.124;2023-02-28T09:32:39;13.02;;;5.12;;
75730;SDS011;64350;47.450;19.124;2023-02-28T09:35:05;12.90;;;5.53;;
75730;SDS011;64350;47.450;19.124;2023-02-28T09:37:31;11.07;;;5.82;;
75730;SDS011;64350;47.450;19.124;2023-02-28T09:39:57;9.27;;;5.43;;
75730;SDS011;64350;47.450;19.124;2023-02-28T09:42:28;10.47;;;5.10;;
75730;SDS011;64350;47.450;19.124;2023-02-28T09:44:57;11.83;;;5.30;;
75730;SDS011;64350;47.450;19.124;2023-02-28T09:47:33;10.55;;;5.57;;
75730;SDS011;64350;47.450;19.124;2023-02-28T09:50:08;12.02;;;6.25;;
75730;SDS011;64350;47.450;19.124;2023-02-28T09:52:48;10.90;;;5.43;;
75730;SDS011;64350;47.450;19.124;2023-02-28T09:57:40;10.80;;;5.57;;
75730;SDS011;64350;47.450;19.124;2023-02-28T10:06:14;11.48;;;5.35;;
75730;SDS011;64350;47.450;19.124;2023-02-28T10:09:43;10.68;;;5.72;;
75730;SDS011;64350;47.450;19.124;2023-02-28T10:11:42;13.65;;;6.22;;
75730;SDS011;64350;47.450;19.124;2023-02-28T10:16:43;12.15;;;5.57;;
75730;SDS011;64350;47.450;19.124;2023-02-28T10:22:01;10.50;;;5.20;;
75730;SDS011;64350;47.450;19.124;2023-02-28T10:24:30;11.00;;;5.87;;
75730;SDS011;64350;47.450;19.124;2023-02-28T10:26:59;11.17;;;5.70;;
75730;SDS011;64350;47.450;19.124;2023-02-28T10:29:27;11.00;;;5.68;;
75730;SDS011;64350;47.450;19.124;2023-02-28T10:31:54;11.18;;;5.70;;
75730;SDS011;64350;47.450;19.124;2023-02-28T10:34:20;10.13;;;5.57;;
75730;SDS011;64350;47.450;19.124;2023-02-28T10:36:46;12.20;;;5.03;;
75730;SDS011;64350;47.450;19.124;2023-02-28T10:42:02;11.98;;;5.75;;
75730;SDS011;64350;47.450;19.124;2023-02-28T10:44:28;11.10;;;5.97;;
75730;SDS011;64350;47.450;19.124;2023-02-28T10:46:54;12.07;;;5.60;;
75730;SDS011;64350;47.450;19.124;2023-02-28T10:51:48;10.85;;;5.78;;
75730;SDS011;64350;47.450;19.124;2023-02-28T10:54:18;10.30;;;5.72;;
75730;SDS011;64350;47.450;19.124;2023-02-28T10:56:45;12.77;;;6.33;;
75730;SDS011;64350;47.450;19.124;2023-02-28T11:06:48;10.32;;;6.05;;
75730;SDS011;64350;47.450;19.124;2023-02-28T11:09:30;10.35;;;5.72;;
75730;SDS011;64350;47.450;19.124;2023-02-28T11:12:04;11.75;;;6.12;;
75730;SDS011;64350;47.450;19.124;2023-02-28T11:14:34;10.50;;;5.23;;
75730;SDS011;64350;47.450;19.124;2023-02-28T11:17:13;8.40;;;5.12;;
75730;SDS011;64350;47.450;19.124;2023-02-28T11:19:44;9.48;;;5.35;;
75730;SDS011;64350;47.450;19.124;2023-02-28T11:22:15;12.13;;;5.47;;
75730;SDS011;64350;47.450;19.124;2023-02-28T11:24:44;9.38;;;5.50;;
75730;SDS011;64350;47.450;19.124;2023-02-28T11:29:56;9.80;;;5.47;;
75730;SDS011;64350;47.450;19.124;2023-02-28T11:32:23;13.10;;;6.07;;
75730;SDS011;64350;47.450;19.124;2023-02-28T11:37:42;11.07;;;6.35;;
75730;SDS011;64350;47.450;19.124;2023-02-28T11:40:18;10.33;;;5.30;;
75730;SDS011;64350;47.450;19.124;2023-02-28T11:42:57;11.43;;;6.15;;
75730;SDS011;64350;47.450;19.124;2023-02-28T11:51:24;8.35;;;4.12;;
75730;SDS011;64350;47.450;19.124;2023-02-28T11:57:30;9.85;;;5.35;;
75730;SDS011;64350;47.450;19.124;2023-02-28T12:03:50;11.43;;;4.78;;
75730;SDS011;64350;47.450;19.124;2023-02-28T12:06:07;8.65;;;4.28;;
75730;SDS011;64350;47.450;19.124;2023-02-28T12:17:08;8.30;;;3.72;;
75730;SDS011;64350;47.450;19.124;2023-02-28T12:22:30;7.20;;;3.80;;
75730;SDS011;64350;47.450;19.124;2023-02-28T12:28:21;8.75;;;4.53;;
75730;SDS011;64350;47.450;19.124;2023-02-28T12:31:11;8.32;;;4.30;;
75730;SDS011;64350;47.450;19.124;2023-02-28T12:33:43;10.57;;;4.68;;
75730;SDS011;64350;47.450;19.124;2023-02-28T12:36:13;8.50;;;4.23;;
75730;SDS011;64350;47.450;19.124;2023-02-28T12:38:53;7.72;;;3.80;;
75730;SDS011;64350;47.450;19.124;2023-02-28T12:44:13;7.65;;;3.92;;
75730;SDS011;64350;47.450;19.124;2023-02-28T12:46:45;9.55;;;4.70;;
75730;SDS011;64350;47.450;19.124;2023-02-28T12:51:51;8.85;;;4.10;;
75730;SDS011;64350;47.450;19.124;2023-02-28T12:54:24;8.32;;;4.40;;
75730;SDS011;64350;47.450;19.124;2023-02-28T13:10:22;10.85;;;4.60;;
75730;SDS011;64350;47.450;19.124;2023-02-28T13:12:51;9.93;;;5.22;;
75730;SDS011;64350;47.450;19.124;2023-02-28T13:15:25;10.47;;;4.53;;
75730;SDS011;64350;47.450;19.124;2023-02-28T13:17:54;7.72;;;3.80;;
75730;SDS011;64350;47.450;19.124;2023-02-28T13:20:22;7.68;;;4.37;;
75730;SDS011;64350;47.450;19.124;2023-02-28T13:22:50;8.27;;;4.35;;
75730;SDS011;64350;47.450;19.124;2023-02-28T13:27:58;10.17;;;4.10;;
75730;SDS011;64350;47.450;19.124;2023-02-28T13:33:37;9.57;;;4.82;;
75730;SDS011;64350;47.450;19.124;2023-02-28T13:36:30;12.05;;;4.82;;
75730;SDS011;64350;47.450;19.124;2023-02-28T13:38:57;8.45;;;4.47;;
75730;SDS011;64350;47.450;19.124;2023-02-28T13:44:05;8.85;;;4.28;;
75730;SDS011;64350;47.450;19.124;2023-02-28T13:46:34;6.95;;;3.58;;
75730;SDS011;64350;47.450;19.124;2023-02-28T13:49:46;9.70;;;3.92;;
75730;SDS011;64350;47.450;19.124;2023-02-28T13:52:32;9.10;;;4.00;;
75730;SDS011;64350;47.450;19.124;2023-02-28T14:05:18;9.32;;;4.28;;
75730;SDS011;64350;47.450;19.124;2023-02-28T14:07:50;8.13;;;3.90;;
75730;SDS011;64350;47.450;19.124;2023-02-28T14:10:22;10.85;;;4.50;;
75730;SDS011;64350;47.450;19.124;2023-02-28T14:18:22;9.77;;;4.87;;
75730;SDS011;64350;47.450;19.124;2023-02-28T14:21:28;11.50;;;4.22;;
75730;SDS011;64350;47.450;19.124;2023-02-28T14:29:17;10.43;;;5.25;;
75730;SDS011;64350;47.450;19.124;2023-02-28T14:37:47;10.75;;;5.20;;
75730;SDS011;64350;47.450;19.124;2023-02-28T14:40:32;9.83;;;4.83;;
75730;SDS011;64350;47.450;19.124;2023-02-28T14:43:00;10.18;;;4.65;;
75730;SDS011;64350;47.450;19.124;2023-02-28T14:45:28;8.63;;;4.35;;
75730;SDS011;64350;47.450;19.124;2023-02-28T14:47:55;11.65;;;4.45;;
75730;SDS011;64350;47.450;19.124;2023-02-28T14:50:32;11.23;;;5.57;;
75730;SDS011;64350;47.450;19.124;2023-02-28T14:53:00;14.43;;;5.83;;
75730;SDS011;64350;47.450;19.124;2023-02-28T14:55:28;11.50;;;6.12;;
75730;SDS011;64350;47.450;19.124;2023-02-28T14:57:56;13.77;;;6.10;;
75730;SDS011;64350;47.450;19.124;2023-02-28T15:02:58;11.60;;;5.57;;
75730;SDS011;64350;47.450;19.124;2023-02-28T15:05:27;10.80;;;5.70;;
75730;SDS011;64350;47.450;19.124;2023-02-28T15:10:50;13.25;;;5.80;;
75730;SDS011;64350;47.450;19.124;2023-02-28T15:13:19;14.43;;;5.28;;
75730;SDS011;64350;47.450;19.124;2023-02-28T15:20:53;13.25;;;5.68;;
75730;SDS011;64350;47.450;19.124;2023-02-28T15:23:19;11.38;;;5.35;;
75730;SDS011;64350;47.450;19.124;2023-02-28T15:25:45;10.95;;;5.47;;
75730;SDS011;64350;47.450;19.124;2023-02-28T15:28:13;13.67;;;5.73;;
75730;SDS011;64350;47.450;19.124;2023-02-28T15:30:49;10.00;;;5.40;;
75730;SDS011;64350;47.450;19.124;2023-02-28T15:35:44;11.85;;;5.70;;
75730;SDS011;64350;47.450;19.124;2023-02-28T15:38:17;12.07;;;5.23;;
75730;SDS011;64350;47.450;19.124;2023-02-28T15:40:49;12.50;;;5.28;;
75730;SDS011;64350;47.450;19.124;2023-02-28T15:45:51;13.33;;;6.47;;
75730;SDS011;64350;47.450;19.124;2023-02-28T15:48:19;12.20;;;5.70;;
75730;SDS011;64350;47.450;19.124;2023-02-28T15:51:08;11.63;;;5.45;;
75730;SDS011;64350;47.450;19.124;2023-02-28T15:53:44;10.90;;;4.93;;
75730;SDS011;64350;47.450;19.124;2023-02-28T15:59:02;12.13;;;6.07;;
75730;SDS011;64350;47.450;19.124;2023-02-28T16:01:33;13.45;;;6.43;;
75730;SDS011;64350;47.450;19.124;2023-02-28T16:06:35;16.35;;;6.78;;
75730;SDS011;64350;47.450;19.124;2023-02-28T16:09:02;13.75;;;5.40;;
75730;SDS011;64350;47.450;19.124;2023-02-28T16:11:28;11.63;;;5.50;;
75730;SDS011;64350;47.450;19.124;2023-02-28T16:13:54;13.10;;;6.10;;
75730;SDS011;64350;47.450;19.124;2023-02-28T16:16:20;14.93;;;6.30;;
75730;SDS011;64350;47.450;19.124;2023-02-28T16:18:47;12.15;;;5.97;;
75730;SDS011;64350;47.450;19.124;2023-02-28T16:21:12;12.17;;;6.80;;
75730;SDS011;64350;47.450;19.124;2023-02-28T16:23:38;13.10;;;6.12;;
75730;SDS011;64350;47.450;19.124;2023-02-28T16:26:04;12.47;;;6.30;;
75730;SDS011;64350;47.450;19.124;2023-02-28T16:28:30;14.25;;;6.32;;
75730;SDS011;64350;47.450;19.124;2023-02-28T16:31:02;13.63;;;6.43;;
75730;SDS011;64350;47.450;19.124;2023-02-28T16:33:29;13.75;;;6.20;;
75730;SDS011;64350;47.450;19.124;2023-02-28T16:35:55;12.02;;;6.30;;
75730;SDS011;64350;47.450;19.124;2023-02-28T16:38:20;11.97;;;5.33;;
75730;SDS011;64350;47.450;19.124;2023-02-28T16:40:48;12.27;;;6.10;;
75730;SDS011;64350;47.450;19.124;2023-02-28T16:43:18;11.65;;;5.78;;
75730;SDS011;64350;47.450;19.124;2023-02-28T16:45:46;15.27;;;6.82;;
75730;SDS011;64350;47.450;19.124;2023-02-28T16:48:12;14.97;;;5.60;;
75730;SDS011;64350;47.450;19.124;2023-02-28T16:50:39;13.05;;;6.40;;
75730;SDS011;64350;47.450;19.124;2023-02-28T16:53:04;14.50;;;6.97;;
75730;SDS011;64350;47.450;19.124;2023-02-28T16:55:30;15.33;;;7.53;;
75730;SDS011;64350;47.450;19.124;2023-02-28T16:57:56;13.93;;;6.75;;
75730;SDS011;64350;47.450;19.124;2023-02-28T17:00:23;17.40;;;7.93;;
75730;SDS011;64350;47.450;19.124;2023-02-28T17:02:49;14.75;;;7.53;;
75730;SDS011;64350;47.450;19.124;2023-02-28T17:05:15;16.25;;;8.23;;
75730;SDS011;64350;47.450;19.124;2023-02-28T17:07:45;15.32;;;7.20;;
75730;SDS011;64350;47.450;19.124;2023-02-28T17:10:19;18.55;;;8.13;;
75730;SDS011;64350;47.450;19.124;2023-02-28T17:12:47;14.67;;;7.20;;
75730;SDS011;64350;47.450;19.124;2023-02-28T17:15:15;15.30;;;6.53;;
75730;SDS011;64350;47.450;19.124;2023-02-28T17:17:59;16.83;;;7.87;;
75730;SDS011;64350;47.450;19.124;2023-02-28T17:20:53;14.37;;;7.40;;
75730;SDS011;64350;47.450;19.124;2023-02-28T17:23:19;13.30;;;6.90;;
75730;SDS011;64350;47.450;19.124;2023-02-28T17:25:50;11.10;;;5.97;;
75730;SDS011;64350;47.450;19.124;2023-02-28T17:28:26;12.43;;;6.07;;
75730;SDS011;64350;47.450;19.124;2023-02-28T17:30:54;12.80;;;6.30;;
75730;SDS011;64350;47.450;19.124;2023-02-28T17:33:20;12.20;;;5.57;;
75730;SDS011;64350;47.450;19.124;2023-02-28T17:35:45;12.60;;;6.17;;
75730;SDS011;64350;47.450;19.124;2023-02-28T17:38:15;14.80;;;6.60;;
75730;SDS011;64350;47.450;19.124;2023-02-28T17:40:41;11.88;;;6.10;;
75730;SDS011;64350;47.450;19.124;2023-02-28T17:43:07;13.53;;;6.77;;
75730;SDS011;64350;47.450;19.124;2023-02-28T17:45:32;13.37;;;6.70;;
75730;SDS011;64350;47.450;19.124;2023-02-28T17:48:00;16.13;;;6.80;;
75730;SDS011;64350;47.450;19.124;2023-02-28T17:50:26;15.18;;;7.43;;
75730;SDS011;64350;47.450;19.124;2023-02-28T17:52:51;16.40;;;7.27;;
75730;SDS011;64350;47.450;19.124;2023-02-28T17:55:17;16.80;;;7.07;;
75730;SDS011;64350;47.450;19.124;2023-02-28T17:57:44;17.92;;;7.65;;
75730;SDS011;64350;47.450;19.124;2023-02-28T18:00:13;15.63;;;7.30;;
75730;SDS011;64350;47.450;19.124;2023-02-28T18:02:40;17.20;;;8.10;;
75730;SDS011;64350;47.450;19.124;2023-02-28T18:05:06;14.70;;;7.10;;
75730;SDS011;64350;47.450;19.124;2023-02-28T18:07:32;13.80;;;7.35;;
75730;SDS011;64350;47.450;19.124;2023-02-28T18:09:58;14.67;;;7.40;;
75730;SDS011;64350;47.450;19.124;2023-02-28T18:12:23;15.83;;;7.57;;
75730;SDS011;64350;47.450;19.124;2023-02-28T18:14:49;13.45;;;6.93;;
75730;SDS011;64350;47.450;19.124;2023-02-28T18:17:14;14.83;;;7.43;;
75730;SDS011;64350;47.450;19.124;2023-02-28T18:19:40;18.00;;;8.43;;
75730;SDS011;64350;47.450;19.124;2023-02-28T18:22:06;17.60;;;8.17;;
75730;SDS011;64350;47.450;19.124;2023-02-28T18:24:32;14.98;;;6.80;;
75730;SDS011;64350;47.450;19.124;2023-02-28T18:26:58;16.53;;;8.13;;
75730;SDS011;64350;47.450;19.124;2023-02-28T18:29:24;23.50;;;8.70;;
75730;SDS011;64350;47.450;19.124;2023-02-28T18:31:52;19.70;;;8.38;;
75730;SDS011;64350;47.450;19.124;2023-02-28T18:34:18;19.73;;;8.65;;
75730;SDS011;64350;47.450;19.124;2023-02-28T18:36:45;17.92;;;7.82;;
75730;SDS011;64350;47.450;19.124;2023-02-28T18:39:12;13.77;;;8.30;;
75730;SDS011;64350;47.450;19.124;2023-02-28T18:41:38;15.37;;;7.73;;
75730;SDS011;64350;47.450;19.124;2023-02-28T18:44:04;16.50;;;8.02;;
75730;SDS011;64350;47.450;19.124;2023-02-28T18:46:29;15.53;;;7.87;;
75730;SDS011;64350;47.450;19.124;2023-02-28T18:48:55;16.47;;;8.33;;
75730;SDS011;64350;47.450;19.124;2023-02-28T18:51:22;18.02;;;8.70;;
75730;SDS011;64350;47.450;19.124;2023-02-28T18:53:50;15.93;;;8.93;;
75730;SDS011;64350;47.450;19.124;2023-02-28T18:56:17;16.60;;;9.20;;
75730;SDS011;64350;47.450;19.124;2023-02-28T18:58:43;18.27;;;8.55;;
75730;SDS011;64350;47.450;19.124;2023-02-28T19:03:42;16.10;;;8.50;;
75730;SDS011;64350;47.450;19.124;2023-02-28T19:06:07;16.60;;;8.10;;
75730;SDS011;64350;47.450;19.124;2023-02-28T19:08:34;17.90;;;8.88;;
75730;SDS011;64350;47.450;19.124;2023-02-28T19:11:05;20.03;;;10.40;;
75730;SDS011;64350;47.450;19.124;2023-02-28T19:13:41;14.32;;;8.30;;
75730;SDS011;64350;47.450;19.124;2023-02-28T19:16:07;17.15;;;8.73;;
75730;SDS011;64350;47.450;19.124;2023-02-28T19:18:34;17.33;;;7.67;;
75730;SDS011;64350;47.450;19.124;2023-02-28T19:20:59;16.40;;;7.68;;
75730;SDS011;64350;47.450;19.124;2023-02-28T19:23:25;15.63;;;7.93;;
75730;SDS011;64350;47.450;19.124;2023-02-28T19:25:51;17.87;;;8.02;;
75730;SDS011;64350;47.450;19.124;2023-02-28T19:28:17;15.93;;;8.73;;
75730;SDS011;64350;47.450;19.124;2023-02-28T19:30:47;14.90;;;7.37;;
75730;SDS011;64350;47.450;19.124;2023-02-28T19:33:18;19.30;;;8.07;;
75730;SDS011;64350;47.450;19.124;2023-02-28T19:35:44;16.80;;;7.97;;
75730;SDS011;64350;47.450;19.124;2023-02-28T19:38:10;16.60;;;8.20;;
75730;SDS011;64350;47.450;19.124;2023-02-28T19:40:35;15.65;;;7.35;;
75730;SDS011;64350;47.450;19.124;2023-02-28T19:43:01;15.67;;;7.30;;
75730;SDS011;64350;47.450;19.124;2023-02-28T19:45:27;17.02;;;7.80;;
75730;SDS011;64350;47.450;19.124;2023-02-28T19:47:53;14.65;;;7.55;;
75730;SDS011;64350;47.450;19.124;2023-02-28T19:50:19;16.80;;;7.20;;
75730;SDS011;64350;47.450;19.124;2023-02-28T19:52:45;14.10;;;6.57;;
75730;SDS011;64350;47.450;19.124;2023-02-28T19:55:13;16.25;;;8.25;;
75730;SDS011;64350;47.450;19.124;2023-02-28T19:57:39;15.50;;;7.80;;
75730;SDS011;64350;47.450;19.124;2023-02-28T20:00:05;15.97;;;7.90;;
75730;SDS011;64350;47.450;19.124;2023-02-28T20:02:33;16.10;;;8.35;;
75730;SDS011;64350;47.450;19.124;2023-02-28T20:04:58;18.93;;;7.70;;
75730;SDS011;64350;47.450;19.124;2023-02-28T20:07:24;18.03;;;8.43;;
75730;SDS011;64350;47.450;19.124;2023-02-28T20:09:50;14.52;;;7.60;;
75730;SDS011;64350;47.450;19.124;2023-02-28T20:12:15;14.77;;;7.67;;
75730;SDS011;64350;47.450;19.124;2023-02-28T20:14:41;15.38;;;8.60;;
75730;SDS011;64350;47.450;19.124;2023-02-28T20:17:07;16.20;;;8.30;;
75730;SDS011;64350;47.450;19.124;2023-02-28T20:19:33;17.17;;;8.07;;
75730;SDS011;64350;47.450;19.124;2023-02-28T20:21:58;17.93;;;7.40;;
75730;SDS011;64350;47.450;19.124;2023-02-28T20:24:26;17.85;;;8.43;;
75730;SDS011;64350;47.450;19.124;2023-02-28T20:26:52;17.70;;;8.38;;
75730;SDS011;64350;47.450;19.124;2023-02-28T20:29:18;18.93;;;8.63;;
75730;SDS011;64350;47.450;19.124;2023-02-28T20:31:43;17.47;;;8.17;;
75730;SDS011;64350;47.450;19.124;2023-02-28T20:34:08;16.73;;;8.15;;
75730;SDS011;64350;47.450;19.124;2023-02-28T20:36:34;16.00;;;8.40;;
75730;SDS011;64350;47.450;19.124;2023-02-28T20:39:00;16.93;;;8.40;;
75730;SDS011;64350;47.450;19.124;2023-02-28T20:41:25;18.67;;;8.68;;
75730;SDS011;64350;47.450;19.124;2023-02-28T20:43:54;19.03;;;9.50;;
75730;SDS011;64350;47.450;19.124;2023-02-28T20:46:22;18.17;;;8.38;;
75730;SDS011;64350;47.450;19.124;2023-02-28T20:48:51;16.77;;;8.55;;
75730;SDS011;64350;47.450;19.124;2023-02-28T20:51:16;19.20;;;8.37;;
75730;SDS011;64350;47.450;19.124;2023-02-28T20:53:41;16.93;;;8.50;;
75730;SDS011;64350;47.450;19.124;2023-02-28T20:56:09;17.00;;;8.03;;
75730;SDS011;64350;47.450;19.124;2023-02-28T20:58:37;19.85;;;8.93;;
75730;SDS011;64350;47.450;19.124;2023-02-28T21:01:11;18.30;;;8.55;;
75730;SDS011;64350;47.450;19.124;2023-02-28T21:03:43;20.10;;;8.48;;
75730;SDS011;64350;47.450;19.124;2023-02-28T21:06:13;20.20;;;9.02;;
75730;SDS011;64350;47.450;19.124;2023-02-28T21:08:41;17.47;;;7.93;;
75730;SDS011;64350;47.450;19.124;2023-02-28T21:11:07;18.90;;;9.25;;
75730;SDS011;64350;47.450;19.124;2023-02-28T21:13:37;18.60;;;9.32;;
75730;SDS011;64350;47.450;19.124;2023-02-28T21:16:07;16.87;;;9.03;;
75730;SDS011;64350;47.450;19.124;2023-02-28T21:18:35;19.85;;;9.20;;
75730;SDS011;64350;47.450;19.124;2023-02-28T21:21:02;18.70;;;9.27;;
75730;SDS011;64350;47.450;19.124;2023-02-28T21:23:28;19.20;;;8.77;;
75730;SDS011;64350;47.450;19.124;2023-02-28T21:25:53;18.20;;;7.57;;
75730;SDS011;64350;47.450;19.124;2023-02-28T21:28:19;15.97;;;7.70;;
75730;SDS011;64350;47.450;19.124;2023-02-28T21:30:44;18.25;;;8.50;;
75730;SDS011;64350;47.450;19.124;2023-02-28T21:33:09;17.23;;;7.80;;
75730;SDS011;64350;47.450;19.124;2023-02-28T21:35:35;15.20;;;7.47;;
75730;SDS011;64350;47.450;19.124;2023-02-28T21:38:00;16.30;;;7.93;;
75730;SDS011;64350;47.450;19.124;2023-02-28T21:40:25;16.93;;;8.80;;
75730;SDS011;64350;47.450;19.124;2023-02-28T21:42:51;15.52;;;7.47;;
